createdAt,value
2023-11-07T00:01:49.321Z,17.90
2023-11-07T00:04:17.127Z,17.87
2023-11-07T00:06:44.452Z,17.83
2023-11-07T00:09:11.384Z,17.79
2023-11-07T00:11:40.204Z,17.78
2023-11-07T00:14:07.228Z,17.75
2023-11-07T00:16:35.187Z,17.74
2023-11-07T00:19:03.345Z,17.72
2023-11-07T00:21:30.441Z,17.72
2023-11-07T00:23:57.219Z,17.70
2023-11-07T00:26:24.008Z,17.68
2023-11-07T00:28:51.552Z,17.65
2023-11-07T00:31:20.435Z,17.63
2023-11-07T00:33:47.392Z,17.60
2023-11-07T00:36:14.642Z,17.57
2023-11-07T00:38:41.640Z,17.53
2023-11-07T00:41:08.654Z,17.49
2023-11-07T00:43:35.889Z,17.47
2023-11-07T00:46:04.462Z,17.44
2023-11-07T00:48:31.924Z,17.42
2023-11-07T00:51:00.836Z,17.39
2023-11-07T00:53:28.099Z,17.38
2023-11-07T00:55:55.146Z,17.35
2023-11-07T00:58:22.076Z,17.33
2023-11-07T01:00:49.616Z,17.29
2023-11-07T01:03:16.534Z,17.26
2023-11-07T01:05:43.859Z,17.21
2023-11-07T01:08:12.210Z,17.17
2023-11-07T01:10:39.745Z,17.14
2023-11-07T01:13:06.911Z,17.10
2023-11-07T01:15:33.755Z,17.09
2023-11-07T01:18:01.603Z,17.07
2023-11-07T01:20:28.675Z,17.06
2023-11-07T01:22:55.803Z,17.00
2023-11-07T01:25:22.744Z,16.96
2023-11-07T01:27:49.807Z,16.98
2023-11-07T01:30:17.293Z,16.96
2023-11-07T01:32:44.248Z,16.93
2023-11-07T01:35:11.346Z,16.91
2023-11-07T01:37:38.296Z,16.89
2023-11-07T01:40:06.155Z,16.87
2023-11-07T01:42:42.405Z,16.86
2023-11-07T01:45:11.107Z,16.85
2023-11-07T01:47:39.848Z,16.84
2023-11-07T01:50:11.669Z,16.83
2023-11-07T01:52:42.016Z,16.81
2023-11-07T01:55:12.518Z,16.78
2023-11-07T01:57:42.541Z,16.75
2023-11-07T02:00:12.498Z,16.72
2023-11-07T02:02:42.969Z,16.69
2023-11-07T02:05:12.691Z,16.67
2023-11-07T02:07:40.027Z,16.65
2023-11-07T02:10:09.791Z,16.65
2023-11-07T02:12:36.677Z,16.64
2023-11-07T02:15:28.422Z,16.64
2023-11-07T02:17:55.948Z,16.64
2023-11-07T02:20:23.348Z,16.63
2023-11-07T02:22:54.252Z,16.61
2023-11-07T02:25:21.199Z,16.58
2023-11-07T02:27:48.767Z,16.54
2023-11-07T02:30:17.480Z,16.51
2023-11-07T02:32:44.981Z,16.48
2023-11-07T02:35:12.274Z,16.43
2023-11-07T02:37:40.009Z,16.41
2023-11-07T02:40:10.700Z,16.40
2023-11-07T02:42:37.604Z,16.40
2023-11-07T02:45:06.384Z,16.39
2023-11-07T02:47:34.166Z,16.38
2023-11-07T02:50:03.857Z,16.36
2023-11-07T02:52:31.924Z,16.33
2023-11-07T02:54:59.688Z,16.29
2023-11-07T02:57:26.483Z,16.25
2023-11-07T02:59:53.513Z,16.21
2023-11-07T03:02:21.645Z,16.17
2023-11-07T03:04:48.897Z,16.13
2023-11-07T03:07:15.843Z,16.10
2023-11-07T03:09:43.094Z,16.08
2023-11-07T03:12:13.416Z,16.06
2023-11-07T03:14:42.325Z,16.04
2023-11-07T03:17:09.568Z,16.00
2023-11-07T03:19:36.503Z,15.98
2023-11-07T03:22:03.536Z,15.95
2023-11-07T03:24:30.609Z,15.91
2023-11-07T03:26:57.492Z,15.87
2023-11-07T03:29:24.918Z,15.83
2023-11-07T03:31:54.402Z,15.79
2023-11-07T03:34:22.094Z,15.76
2023-11-07T03:36:49.013Z,15.73
2023-11-07T03:39:16.466Z,15.71
2023-11-07T03:41:45.699Z,15.70
2023-11-07T03:44:13.425Z,15.68
2023-11-07T03:46:41.713Z,15.65
2023-11-07T03:49:08.821Z,15.62
2023-11-07T03:51:35.826Z,15.60
2023-11-07T03:54:02.785Z,15.57
2023-11-07T03:56:29.818Z,15.54
2023-11-07T03:58:56.843Z,15.52
2023-11-07T04:01:23.789Z,15.50
2023-11-07T04:03:51.791Z,15.49
2023-11-07T04:06:18.970Z,15.48
2023-11-07T04:08:46.103Z,15.49
2023-11-07T04:11:14.428Z,15.49
2023-11-07T04:13:43.414Z,15.50
2023-11-07T04:16:10.389Z,15.48
2023-11-07T04:18:37.216Z,15.47
2023-11-07T04:21:05.004Z,15.51
2023-11-07T04:23:32.012Z,15.51
2023-11-07T04:25:59.161Z,15.48
2023-11-07T04:28:27.333Z,15.44
2023-11-07T04:30:54.351Z,15.42
2023-11-07T04:33:22.041Z,15.38
2023-11-07T04:35:49.688Z,15.29
2023-11-07T04:38:17.474Z,15.24
2023-11-07T04:40:44.309Z,15.22
2023-11-07T04:43:11.597Z,15.21
2023-11-07T04:45:38.807Z,15.20
2023-11-07T04:48:06.882Z,15.20
2023-11-07T04:50:35.509Z,15.23
2023-11-07T04:53:05.179Z,15.28
2023-11-07T04:55:35.066Z,15.25
2023-11-07T04:58:02.034Z,15.31
2023-11-07T05:00:29.287Z,15.31
2023-11-07T05:02:56.198Z,15.31
2023-11-07T05:05:23.283Z,15.31
2023-11-07T05:07:51.764Z,15.29
2023-11-07T05:10:20.658Z,15.29
2023-11-07T05:12:48.319Z,15.33
2023-11-07T05:15:15.315Z,15.33
2023-11-07T05:17:42.395Z,15.35
2023-11-07T05:20:11.161Z,15.38
2023-11-07T05:22:38.187Z,15.42
2023-11-07T05:25:09.674Z,15.44
2023-11-07T05:27:36.760Z,15.48
2023-11-07T05:30:04.833Z,15.55
2023-11-07T05:32:31.997Z,15.66
2023-11-07T05:34:58.927Z,15.73
2023-11-07T05:37:25.862Z,15.81
2023-11-07T05:39:52.699Z,15.88
2023-11-07T05:42:20.269Z,15.93
2023-11-07T05:44:47.199Z,15.98
2023-11-07T05:47:14.449Z,16.01
2023-11-07T05:49:41.303Z,16.06
2023-11-07T05:52:08.463Z,16.13
2023-11-07T05:54:35.396Z,16.24
2023-11-07T05:57:02.661Z,16.37
2023-11-07T05:59:29.713Z,16.47
2023-11-07T06:01:56.828Z,16.54
2023-11-07T06:04:31.577Z,16.61
2023-11-07T06:06:59.548Z,16.68
2023-11-07T06:09:30.873Z,16.74
2023-11-07T06:11:57.759Z,16.78
2023-11-07T06:14:25.199Z,16.83
2023-11-07T06:16:55.186Z,16.90
2023-11-07T06:19:22.358Z,16.98
2023-11-07T06:21:50.222Z,17.05
2023-11-07T06:24:17.433Z,17.12
2023-11-07T06:26:44.451Z,17.20
2023-11-07T06:29:13.233Z,17.28
2023-11-07T06:31:44.758Z,17.38
2023-11-07T06:34:12.671Z,17.50
2023-11-07T06:36:39.644Z,17.62
2023-11-07T06:39:07.134Z,17.71
2023-11-07T06:41:35.086Z,17.81
2023-11-07T06:44:02.018Z,17.86
2023-11-07T06:46:28.987Z,17.89
2023-11-07T06:48:59.320Z,17.94
2023-11-07T06:51:28.488Z,18.02
2023-11-07T06:53:55.433Z,18.09
2023-11-07T06:56:22.372Z,18.14
2023-11-07T06:58:49.314Z,18.21
2023-11-07T07:01:16.467Z,18.19
2023-11-07T07:03:43.309Z,18.20
2023-11-07T07:06:11.734Z,18.36
2023-11-07T07:08:38.878Z,18.60
2023-11-07T07:11:06.604Z,18.68
2023-11-07T07:13:34.278Z,18.74
2023-11-07T07:16:01.311Z,18.79
2023-11-07T07:18:28.571Z,18.85
2023-11-07T07:20:56.119Z,18.90
2023-11-07T07:23:26.247Z,18.94
2023-11-07T07:25:56.773Z,18.99
2023-11-07T07:28:26.381Z,19.03
2023-11-07T07:30:55.058Z,19.08
2023-11-07T07:33:25.066Z,19.14
2023-11-07T07:35:52.398Z,19.20
2023-11-07T07:38:19.642Z,19.25
2023-11-07T07:40:46.435Z,19.30
2023-11-07T07:43:13.367Z,19.34
2023-11-07T07:45:43.174Z,19.38
2023-11-07T07:48:11.455Z,19.43
2023-11-07T07:50:42.562Z,19.47
2023-11-07T07:53:09.849Z,19.52
2023-11-07T07:55:38.994Z,19.57
2023-11-07T07:58:07.116Z,19.61
2023-11-07T08:00:34.067Z,19.65
2023-11-07T08:03:07.927Z,19.69
2023-11-07T08:05:39.631Z,19.75
2023-11-07T08:08:07.487Z,19.82
2023-11-07T08:10:34.645Z,19.88
2023-11-07T08:13:06.302Z,19.93
2023-11-07T08:15:36.003Z,20.00
2023-11-07T08:18:06.775Z,19.98
2023-11-07T08:20:34.292Z,19.79
2023-11-07T08:23:02.363Z,19.78
2023-11-07T08:25:29.356Z,19.82
2023-11-07T08:27:56.667Z,19.85
2023-11-07T08:30:24.217Z,19.89
2023-11-07T08:32:52.133Z,19.93
2023-11-07T08:35:19.748Z,19.98
2023-11-07T08:37:50.893Z,20.04
2023-11-07T08:40:20.468Z,20.10
2023-11-07T08:42:49.081Z,20.15
2023-11-07T08:45:16.826Z,20.19
2023-11-07T08:47:44.871Z,20.23
2023-11-07T08:50:14.933Z,20.30
2023-11-07T08:52:41.854Z,20.34
2023-11-07T08:55:09.761Z,20.40
2023-11-07T08:57:42.262Z,20.61
2023-11-07T09:00:10.568Z,20.86
2023-11-07T09:02:39.015Z,20.95
2023-11-07T09:05:07.494Z,21.04
2023-11-07T09:07:35.690Z,21.14
2023-11-07T09:10:03.187Z,21.10
2023-11-07T09:12:30.488Z,20.95
2023-11-07T09:15:00.080Z,20.97
2023-11-07T09:17:28.041Z,21.12
2023-11-07T09:19:55.476Z,21.36
2023-11-07T09:22:23.954Z,21.43
2023-11-07T09:24:51.920Z,21.47
2023-11-07T09:27:19.110Z,21.51
2023-11-07T09:29:46.991Z,21.53
2023-11-07T09:32:14.502Z,21.57
2023-11-07T09:34:42.221Z,21.61
2023-11-07T09:37:09.405Z,21.63
2023-11-07T09:39:36.667Z,21.66
2023-11-07T09:42:08.611Z,21.70
2023-11-07T09:44:38.993Z,21.71
2023-11-07T09:47:06.924Z,21.74
2023-11-07T09:49:34.241Z,21.78
2023-11-07T09:52:05.424Z,21.81
2023-11-07T09:54:33.648Z,21.83
2023-11-07T09:57:07.260Z,21.87
2023-11-07T09:59:50.207Z,21.89
2023-11-07T10:02:17.561Z,21.91
2023-11-07T10:04:45.385Z,21.92
2023-11-07T10:07:13.602Z,21.96
2023-11-07T10:09:41.227Z,21.99
2023-11-07T10:12:16.299Z,22.02
2023-11-07T10:14:43.451Z,22.05
2023-11-07T10:17:23.502Z,22.08
2023-11-07T10:20:05.706Z,21.89
2023-11-07T10:22:51.186Z,21.87
2023-11-07T10:25:35.597Z,21.93
2023-11-07T10:28:03.602Z,21.98
2023-11-07T10:30:37.604Z,22.02
2023-11-07T10:33:04.639Z,22.07
2023-11-07T10:35:52.101Z,22.11
2023-11-07T10:38:19.402Z,22.15
2023-11-07T10:40:48.697Z,22.18
2023-11-07T10:43:34.420Z,22.21
2023-11-07T10:46:05.582Z,22.23
2023-11-07T10:48:42.991Z,22.26
2023-11-07T10:51:14.033Z,22.30
2023-11-07T10:53:45.281Z,22.32
2023-11-07T10:56:18.945Z,22.36
2023-11-07T10:58:55.482Z,22.40
2023-11-07T11:01:22.393Z,22.42
2023-11-07T11:03:52.924Z,22.46
2023-11-07T11:06:24.779Z,22.49
2023-11-07T11:08:55.077Z,22.52
2023-11-07T11:11:22.120Z,22.57
2023-11-07T11:13:49.176Z,22.61
2023-11-07T11:16:16.211Z,22.65
2023-11-07T11:18:57.037Z,22.71
2023-11-07T11:21:58.031Z,22.74
2023-11-07T11:24:41.071Z,22.77
2023-11-07T11:27:15.344Z,22.81
2023-11-07T11:29:49.833Z,22.83
2023-11-07T11:32:32.540Z,22.84
2023-11-07T11:35:28.416Z,22.87
2023-11-07T11:38:14.717Z,22.88
2023-11-07T11:41:00.188Z,22.89
2023-11-07T11:43:33.523Z,22.90
2023-11-07T11:46:29.936Z,22.90
2023-11-07T11:49:09.620Z,22.91
2023-11-07T11:51:41.345Z,22.91
2023-11-07T11:54:12.166Z,22.92
2023-11-07T11:56:51.256Z,22.94
2023-11-07T11:59:20.013Z,22.97
2023-11-07T12:01:50.805Z,22.95
2023-11-07T12:04:40.841Z,22.95
2023-11-07T12:07:11.068Z,22.94
2023-11-07T12:09:38.902Z,22.94
2023-11-07T12:12:06.825Z,22.92
2023-11-07T12:14:34.205Z,22.90
2023-11-07T12:17:01.481Z,22.86
2023-11-07T12:19:30.235Z,22.95
2023-11-07T12:22:00.193Z,23.12
2023-11-07T12:24:27.242Z,23.13
2023-11-07T12:26:54.282Z,23.16
2023-11-07T12:29:34.739Z,23.18
2023-11-07T12:32:03.975Z,23.16
2023-11-07T12:34:32.306Z,23.15
2023-11-07T12:37:10.359Z,23.13
2023-11-07T12:39:37.398Z,23.09
2023-11-07T12:42:05.521Z,23.03
2023-11-07T12:44:32.554Z,22.98
2023-11-07T12:46:59.603Z,22.81
2023-11-07T12:49:28.703Z,22.87
2023-11-07T12:51:56.601Z,22.85
2023-11-07T12:54:28.414Z,22.80
2023-11-07T12:56:55.855Z,22.79
2023-11-07T12:59:23.252Z,22.74
2023-11-07T13:01:50.296Z,22.76
2023-11-07T13:04:18.897Z,22.74
2023-11-07T13:06:59.305Z,22.65
2023-11-07T13:09:33.094Z,22.60
2023-11-07T13:12:10.129Z,22.53
2023-11-07T13:14:40.442Z,22.36
2023-11-07T13:17:08.952Z,22.27
2023-11-07T13:19:37.012Z,22.23
2023-11-07T13:22:04.561Z,22.25
2023-11-07T13:24:31.807Z,22.20
2023-11-07T13:26:59.877Z,22.31
2023-11-07T13:29:28.048Z,22.32
2023-11-07T13:31:55.600Z,22.30
2023-11-07T13:34:22.761Z,22.33
2023-11-07T13:36:49.726Z,22.37
2023-11-07T13:39:24.443Z,22.42
2023-11-07T13:41:52.043Z,22.44
2023-11-07T13:44:19.134Z,22.47
2023-11-07T13:46:47.417Z,22.48
2023-11-07T13:49:14.624Z,22.48
2023-11-07T13:51:42.141Z,22.47
2023-11-07T13:54:09.521Z,22.46
2023-11-07T13:56:37.046Z,22.44
2023-11-07T13:59:05.586Z,22.42
2023-11-07T14:01:32.680Z,22.41
2023-11-07T14:03:59.861Z,22.38
2023-11-07T14:06:28.009Z,22.35
2023-11-07T14:08:55.286Z,22.32
2023-11-07T14:11:22.403Z,22.29
2023-11-07T14:13:51.182Z,22.10
2023-11-07T14:16:18.931Z,21.93
2023-11-07T14:18:49.566Z,22.04
2023-11-07T14:21:17.842Z,22.11
2023-11-07T14:23:47.683Z,22.10
2023-11-07T14:26:15.833Z,22.06
2023-11-07T14:28:50.937Z,22.05
2023-11-07T14:31:26.436Z,22.04
2023-11-07T14:33:53.754Z,22.03
2023-11-07T14:36:20.992Z,22.00
2023-11-07T14:38:48.054Z,21.98
2023-11-07T14:41:15.208Z,21.94
2023-11-07T14:43:42.379Z,21.91
2023-11-07T14:46:10.836Z,21.86
2023-11-07T14:48:38.003Z,21.83
2023-11-07T14:51:05.660Z,21.79
2023-11-07T14:53:33.225Z,21.78
2023-11-07T14:56:00.360Z,21.76
2023-11-07T14:58:27.327Z,21.75
2023-11-07T15:00:54.754Z,21.74
2023-11-07T15:03:23.209Z,21.73
2023-11-07T15:05:52.327Z,21.71
2023-11-07T15:08:20.001Z,21.69
2023-11-07T15:10:47.043Z,21.66
2023-11-07T15:13:14.166Z,21.64
2023-11-07T15:15:41.809Z,21.61
2023-11-07T15:18:12.531Z,21.60
2023-11-07T15:20:40.762Z,21.57
2023-11-07T15:23:08.099Z,21.56
2023-11-07T15:25:35.816Z,21.55
2023-11-07T15:28:03.585Z,21.55
2023-11-07T15:30:35.511Z,21.57
2023-11-07T15:33:03.662Z,21.57
2023-11-07T15:35:35.169Z,21.59
2023-11-07T15:38:02.387Z,21.60
2023-11-07T15:40:29.527Z,21.62
2023-11-07T15:42:56.795Z,21.64
2023-11-07T15:45:23.839Z,21.65
2023-11-07T15:47:51.048Z,21.68
2023-11-07T15:50:18.264Z,21.69
2023-11-07T15:52:55.873Z,21.71
2023-11-07T15:55:32.593Z,21.74
2023-11-07T15:58:00.057Z,21.71
2023-11-07T16:00:28.673Z,21.73
2023-11-07T16:02:55.871Z,21.80
2023-11-07T16:05:29.744Z,21.83
2023-11-07T16:07:56.860Z,21.84
2023-11-07T16:10:26.707Z,21.85
2023-11-07T16:12:54.324Z,21.86
2023-11-07T16:15:21.862Z,21.86
2023-11-07T16:17:49.798Z,21.87
2023-11-07T16:20:20.718Z,21.88
2023-11-07T16:22:48.208Z,21.88
2023-11-07T16:25:16.544Z,21.89
2023-11-07T16:27:43.876Z,21.88
2023-11-07T16:30:12.307Z,21.85
2023-11-07T16:32:40.062Z,21.83
2023-11-07T16:35:07.686Z,21.81
2023-11-07T16:37:35.028Z,21.79
2023-11-07T16:40:08.891Z,21.78
2023-11-07T16:42:36.807Z,21.79
2023-11-07T16:45:05.880Z,21.80
2023-11-07T16:47:34.861Z,21.81
2023-11-07T16:50:02.451Z,21.81
2023-11-07T16:52:29.550Z,21.82
2023-11-07T16:54:56.741Z,21.83
2023-11-07T16:57:23.943Z,21.84
2023-11-07T16:59:51.798Z,21.84
2023-11-07T17:02:19.314Z,21.86
2023-11-07T17:04:46.486Z,21.87
2023-11-07T17:07:13.831Z,21.87
2023-11-07T17:09:41.459Z,21.88
2023-11-07T17:12:08.726Z,21.88
2023-11-07T17:14:37.689Z,21.89
2023-11-07T17:17:05.901Z,21.90
2023-11-07T17:19:32.943Z,21.91
2023-11-07T17:21:59.903Z,21.91
2023-11-07T17:24:28.209Z,21.92
2023-11-07T17:26:55.661Z,21.92
2023-11-07T17:29:22.974Z,21.90
2023-11-07T17:31:50.152Z,21.90
2023-11-07T17:34:17.694Z,21.89
2023-11-07T17:36:46.688Z,21.89
2023-11-07T17:39:16.123Z,21.88
2023-11-07T17:41:46.917Z,21.85
2023-11-07T17:44:18.581Z,21.84
2023-11-07T17:46:45.490Z,21.83
2023-11-07T17:49:15.012Z,21.84
2023-11-07T17:51:45.585Z,21.83
2023-11-07T17:54:13.670Z,21.83
2023-11-07T17:56:41.266Z,21.84
2023-11-07T17:59:11.914Z,21.85
2023-11-07T18:01:39.654Z,21.85
2023-11-07T18:04:07.306Z,21.87
2023-11-07T18:06:34.667Z,21.88
2023-11-07T18:09:02.346Z,21.90
2023-11-07T18:11:34.274Z,21.91
2023-11-07T18:14:03.099Z,21.92
2023-11-07T18:16:30.457Z,21.92
2023-11-07T18:18:59.455Z,21.93
2023-11-07T18:21:28.109Z,21.92
2023-11-07T18:23:55.869Z,21.86
2023-11-07T18:26:23.515Z,21.93
2023-11-07T18:28:50.778Z,21.93
2023-11-07T18:31:18.248Z,21.88
2023-11-07T18:33:49.421Z,21.65
2023-11-07T18:36:18.580Z,21.62
2023-11-07T18:38:46.292Z,21.62
2023-11-07T18:41:13.320Z,21.62
2023-11-07T18:43:40.369Z,21.62
2023-11-07T18:46:11.417Z,21.63
2023-11-07T18:48:40.157Z,21.64
2023-11-07T18:51:07.695Z,21.64
2023-11-07T18:53:43.499Z,21.65
2023-11-07T18:56:13.920Z,21.64
2023-11-07T18:58:42.320Z,21.65
2023-11-07T19:01:09.992Z,21.64
2023-11-07T19:03:37.332Z,21.37
2023-11-07T19:06:07.324Z,21.30
2023-11-07T19:08:34.912Z,21.29
2023-11-07T19:11:02.246Z,21.30
2023-11-07T19:13:29.295Z,21.29
2023-11-07T19:15:56.345Z,21.31
2023-11-07T19:18:25.214Z,21.31
2023-11-07T19:20:54.641Z,21.31
2023-11-07T19:23:23.237Z,21.33
2023-11-07T19:25:53.029Z,21.33
2023-11-07T19:28:24.184Z,21.35
2023-11-07T19:30:51.221Z,21.35
2023-11-07T19:33:19.881Z,21.36
2023-11-07T19:35:48.734Z,21.37
2023-11-07T19:38:15.690Z,21.37
2023-11-07T19:40:44.527Z,21.38
2023-11-07T19:43:11.586Z,21.38
2023-11-07T19:45:43.561Z,21.39
2023-11-07T19:48:14.522Z,21.40
2023-11-07T19:50:41.755Z,21.41
2023-11-07T19:53:12.011Z,21.42
2023-11-07T19:55:39.270Z,21.44
2023-11-07T19:58:06.064Z,21.45
2023-11-07T20:00:33.258Z,21.47
2023-11-07T20:03:00.975Z,21.48
2023-11-07T20:05:28.125Z,21.49
2023-11-07T20:07:56.757Z,21.51
2023-11-07T20:10:25.278Z,21.52
2023-11-07T20:12:52.741Z,21.53
2023-11-07T20:15:20.028Z,21.57
2023-11-07T20:17:47.187Z,21.57
2023-11-07T20:20:15.517Z,21.56
2023-11-07T20:22:44.515Z,21.58
2023-11-07T20:25:11.553Z,21.59
2023-11-07T20:27:40.405Z,21.60
2023-11-07T20:30:11.481Z,21.62
2023-11-07T20:32:38.699Z,21.63
2023-11-07T20:35:06.639Z,21.63
2023-11-07T20:37:33.668Z,21.63
2023-11-07T20:40:00.915Z,21.64
2023-11-07T20:42:28.484Z,21.64
2023-11-07T20:45:01.309Z,21.65
2023-11-07T20:47:36.131Z,21.66
2023-11-07T20:50:06.648Z,21.66
2023-11-07T20:52:33.928Z,21.67
2023-11-07T20:55:01.200Z,21.67
2023-11-07T20:57:28.259Z,21.67
2023-11-07T20:59:55.198Z,21.67
2023-11-07T21:02:22.354Z,21.67
2023-11-07T21:04:49.548Z,21.68
2023-11-07T21:07:16.761Z,21.68
2023-11-07T21:09:43.786Z,21.68
2023-11-07T21:12:10.837Z,21.69
2023-11-07T21:14:39.429Z,21.70
2023-11-07T21:17:06.487Z,21.70
2023-11-07T21:19:36.787Z,21.71
2023-11-07T21:22:06.634Z,21.73
2023-11-07T21:24:33.891Z,21.72
2023-11-07T21:27:01.207Z,21.72
2023-11-07T21:29:30.418Z,21.72
2023-11-07T21:31:59.291Z,21.72
2023-11-07T21:34:26.418Z,21.71
2023-11-07T21:36:53.662Z,21.72
2023-11-07T21:39:21.988Z,21.72
2023-11-07T21:41:49.482Z,21.71
2023-11-07T21:44:16.591Z,21.70
2023-11-07T21:46:43.420Z,21.71
2023-11-07T21:49:10.499Z,21.71
2023-11-07T21:51:37.860Z,21.71
2023-11-07T21:54:05.726Z,21.72
2023-11-07T21:56:32.839Z,21.72
2023-11-07T21:58:59.678Z,21.74
2023-11-07T22:01:27.030Z,21.75
2023-11-07T22:03:54.478Z,21.75
2023-11-07T22:06:22.116Z,21.75
2023-11-07T22:08:49.919Z,21.75
2023-11-07T22:11:16.871Z,21.75
2023-11-07T22:13:43.909Z,21.72
2023-11-07T22:16:11.484Z,21.72
2023-11-07T22:18:39.773Z,21.71
2023-11-07T22:21:07.588Z,21.71
2023-11-07T22:23:35.283Z,21.71
2023-11-07T22:26:02.212Z,21.71
2023-11-07T22:28:31.543Z,21.70
2023-11-07T22:30:59.904Z,21.70
2023-11-07T22:33:27.211Z,21.69
2023-11-07T22:35:54.499Z,21.68
2023-11-07T22:38:21.658Z,21.69
2023-11-07T22:40:51.644Z,21.71
2023-11-07T22:43:19.530Z,21.71
2023-11-07T22:45:47.736Z,21.70
2023-11-07T22:48:14.971Z,21.69
2023-11-07T22:50:42.105Z,21.68
2023-11-07T22:53:10.327Z,21.67
2023-11-07T22:55:37.654Z,21.65
2023-11-07T22:58:05.594Z,21.61
2023-11-07T23:00:41.618Z,21.60
2023-11-07T23:03:11.619Z,21.60
2023-11-07T23:05:40.297Z,21.58
2023-11-07T23:08:10.781Z,21.58
2023-11-07T23:10:39.493Z,21.58
2023-11-07T23:13:07.557Z,21.56
2023-11-07T23:15:35.340Z,21.56
2023-11-07T23:18:02.349Z,21.55
2023-11-07T23:20:31.092Z,21.57
2023-11-07T23:22:59.207Z,21.57
2023-11-07T23:25:27.089Z,21.54
2023-11-07T23:27:54.222Z,21.52
2023-11-07T23:30:21.911Z,21.51
2023-11-07T23:32:49.859Z,21.51
2023-11-07T23:35:18.698Z,21.52
2023-11-07T23:37:45.620Z,21.53
2023-11-07T23:40:13.146Z,21.53
2023-11-07T23:42:41.673Z,21.53
2023-11-07T23:45:09.217Z,21.57
2023-11-07T23:47:36.642Z,21.61
2023-11-07T23:50:05.808Z,21.62
2023-11-07T23:52:33.599Z,21.59
2023-11-07T23:55:01.465Z,21.53
2023-11-07T23:57:29.223Z,21.53
2023-11-07T23:59:56.891Z,21.56
